Main page
METAR-TAF:

METAR-TAF

Airports :

Jabalpur Airport

Jabalpur, India

latitude: 23-10-54N, longitude: 80-03-31E, elevation: 495 m

Current weather observation

The report was made 12 minutes ago, at 10:30 UTC
Wind 10 kt from the South/Southwest with gusts up to 20 kt
Temperature 34°C
Humidity 32%
Pressure 1010 hPa
Visibility: 6000 m
Scattered clouds at a height of 2500 ft

METAR: VAJB 131030Z 20010G20KT 6000 SCT025 34/15 Q1010 NOSIG

Time: 16:12 (10:42 UTC)


TAF: missing

Weather observations and forecasts of more than 4000 airports (METAR and TAF reports).

The available stations are represented by yellow and red dots on the map.

Hover mouse over dot to see the name of the station.

Then click to see weather observations and forecasts.

To change the map : click on the green buttons with a black cross to zoom in, on the green button with a dash to zoom out, or on the green arrows for adjacent maps.


METAR-TAF: